Time;durP1;ratioP1;P1;durP2;ratioP2;P2;SDS_P1;SDS_P2;PMS_P1;PMS_P2;Temp;Humidity;BMP_temperature;BMP_pressure;BME280_temperature;BME280_humidity;BME280_pressure;Samples;Min_cycle;Max_cycle;Signal;HPM_P1;HPM_P2
2022/06/20 00:00:06;;;;;;;;;31.75;28.00;;;;;20.18;57.84;100555.47;5102527;27;45305;-54
2022/06/20 00:02:31;;;;;;;;;33.50;29.25;;;;;20.22;58.56;100568.44;5109435;27;45999;-51
2022/06/20 00:04:59;;;;;;;;;35.75;30.00;;;;;20.25;58.26;100575.34;5113949;27;45319;-54
2022/06/20 00:07:24;;;;;;;;;34.75;30.00;;;;;20.28;58.36;100564.50;5114458;27;45505;-54
2022/06/20 00:09:50;;;;;;;;;31.25;29.25;;;;;20.29;58.17;100569.72;5107582;27;73568;-54
2022/06/20 00:12:19;;;;;;;;;30.50;27.25;;;;;20.32;58.42;100565.97;5106254;27;46084;-53
2022/06/20 00:14:45;;;;;;;;;36.75;30.50;;;;;20.35;58.83;100575.56;5113169;27;45392;-52
2022/06/20 00:17:12;;;;;;;;;31.75;27.75;;;;;20.31;59.15;100572.25;5103178;27;45318;-54
2022/06/20 00:19:39;;;;;;;;;30.25;27.75;;;;;20.27;59.24;100590.22;5109421;27;45370;-51
2022/06/20 00:22:06;;;;;;;;;29.00;25.50;;;;;20.26;59.42;100590.34;5103487;27;45432;-53
2022/06/20 00:24:31;;;;;;;;;32.50;28.25;;;;;20.25;59.17;100605.41;5104317;27;71496;-50
2022/06/20 00:26:57;;;;;;;;;31.75;27.50;;;;;20.23;59.28;100609.97;5104627;27;62824;-52
2022/06/20 00:29:22;;;;;;;;;32.75;26.50;;;;;20.24;59.42;100624.97;5111167;27;46850;-52
2022/06/20 00:31:48;;;;;;;;;33.75;25.75;;;;;20.23;59.69;100603.81;5099183;27;75401;-53
2022/06/20 00:34:13;;;;;;;;;29.75;27.75;;;;;20.25;59.13;100581.50;5108354;27;45462;-53
2022/06/20 00:36:39;;;;;;;;;33.00;26.75;;;;;20.27;59.51;100561.00;5107787;27;54161;-53
2022/06/20 00:39:05;;;;;;;;;30.75;26.25;;;;;20.29;59.40;100536.94;5108870;27;45424;-49
2022/06/20 00:41:32;;;;;;;;;30.50;24.50;;;;;20.31;59.77;100521.75;5099771;27;65254;-49
2022/06/20 00:43:58;;;;;;;;;26.00;22.50;;;;;20.32;59.11;100504.84;5100780;27;45477;-48
2022/06/20 00:46:35;;;;;;;;;29.00;25.75;;;;;20.32;59.28;100514.63;5100558;27;45494;-51
2022/06/20 00:49:12;;;;;;;;;29.25;22.75;;;;;20.32;60.20;100534.06;5108125;27;45435;-52
2022/06/20 00:51:42;;;;;;;;;31.25;27.25;;;;;20.30;59.68;100541.31;5096993;27;47022;-49
2022/06/20 00:54:11;;;;;;;;;33.75;25.75;;;;;20.29;60.09;100561.72;5104233;27;45719;-52
2022/06/20 00:56:53;;;;;;;;;29.50;26.00;;;;;20.29;59.95;100580.34;5105317;27;45822;-52
2022/06/20 00:59:43;;;;;;;;;32.00;25.75;;;;;20.29;59.65;100592.75;5098937;27;45231;-51
2022/06/20 01:02:11;;;;;;;;;29.25;25.25;;;;;20.29;59.84;100603.38;5105316;27;46655;-54
2022/06/20 01:04:48;;;;;;;;;28.50;23.25;;;;;20.28;59.32;100610.50;5079448;27;45472;-52
2022/06/20 01:07:23;;;;;;;;;25.75;24.50;;;;;20.30;59.73;100621.03;5106334;27;45420;-51
2022/06/20 01:09:50;;;;;;;;;32.50;26.50;;;;;20.29;59.47;100627.31;5111020;27;45440;-54
2022/06/20 01:12:17;;;;;;;;;30.00;23.50;;;;;20.28;59.85;100631.78;5104730;27;46361;-53
2022/06/20 01:14:43;;;;;;;;;31.00;26.25;;;;;20.27;59.79;100626.56;5109566;27;45914;-52
2022/06/20 01:17:22;;;;;;;;;29.25;25.25;;;;;20.27;59.81;100626.56;5100221;27;69677;-54
2022/06/20 01:20:14;;;;;;;;;30.75;26.75;;;;;20.28;60.35;100615.81;5107741;27;45433;-53
2022/06/20 01:22:39;;;;;;;;;32.50;26.50;;;;;20.27;60.29;100613.28;5104284;27;46941;-51
2022/06/20 01:25:14;;;;;;;;;32.00;26.00;;;;;20.27;60.73;100597.31;5104896;27;45358;-53
2022/06/20 01:27:42;;;;;;;;;28.50;25.25;;;;;20.26;60.80;100585.03;5103563;27;45553;-51
2022/06/20 01:30:08;;;;;;;;;35.25;26.75;;;;;20.22;61.00;100583.50;5110155;27;45180;-53
2022/06/20 01:32:34;;;;;;;;;31.25;27.00;;;;;20.21;60.71;100563.22;5107707;27;46544;-52
2022/06/20 01:35:02;;;;;;;;;31.00;29.50;;;;;20.20;60.17;100557.06;5093795;27;59817;-54
2022/06/20 01:37:29;;;;;;;;;33.00;23.00;;;;;20.21;60.36;100541.97;5097140;27;45487;-52
2022/06/20 01:40:23;;;;;;;;;34.75;28.50;;;;;20.20;60.61;100522.53;5105427;27;45675;-52
2022/06/20 01:42:49;;;;;;;;;35.50;26.75;;;;;20.18;60.60;100510.28;5101530;27;75674;-53
2022/06/20 01:48:04;;;;;;;;;27.75;23.25;;;;;20.18;59.98;100475.75;5098842;27;45436;-54
2022/06/20 01:50:31;;;;;;;;;29.25;24.75;;;;;20.18;60.57;100460.66;5106272;27;45532;-54
2022/06/20 01:52:56;;;;;;;;;31.50;26.00;;;;;20.16;60.58;100436.00;5103964;27;46729;-50
2022/06/20 01:55:25;;;;;;;;;28.00;25.00;;;;;20.15;60.48;100430.81;5104547;27;64716;-51
2022/06/20 01:57:53;;;;;;;;;32.25;24.25;;;;;20.13;60.23;100398.19;5102528;27;45302;-54
2022/06/20 02:00:22;;;;;;;;;29.50;22.50;;;;;20.08;60.20;100364.00;5105075;27;45355;-53
2022/06/20 02:03:02;;;;;;;;;25.25;20.75;;;;;20.01;60.65;100323.75;5107429;27;45408;-51
2022/06/20 02:05:30;;;;;;;;;21.75;21.50;;;;;19.91;60.68;100243.06;5121520;27;45417;-50
2022/06/20 02:08:01;;;;;;;;;22.00;21.50;;;;;19.84;61.04;100194.00;5110846;27;45346;-51
2022/06/20 02:10:52;;;;;;;;;29.00;24.25;;;;;19.76;61.36;100170.69;5113982;27;45394;-54
2022/06/20 02:13:18;;;;;;;;;25.25;22.75;;;;;19.65;61.06;100146.72;5115810;27;46543;-54
2022/06/20 02:15:45;;;;;;;;;32.25;26.75;;;;;19.57;61.83;100157.91;5109958;27;45708;-53
2022/06/20 02:18:11;;;;;;;;;23.50;20.50;;;;;19.51;61.30;100191.06;5093165;27;45612;-54
2022/06/20 02:20:48;;;;;;;;;25.50;22.75;;;;;19.51;61.94;100254.75;5101453;27;51163;-53
2022/06/20 02:23:22;;;;;;;;;26.25;23.50;;;;;19.53;61.04;100273.22;5104368;27;45718;-53
2022/06/20 02:25:49;;;;;;;;;28.00;20.50;;;;;19.56;60.86;100294.22;5111759;27;45817;-53
2022/06/20 02:28:21;;;;;;;;;22.75;20.75;;;;;19.61;61.16;100323.94;5110145;27;45507;-54
2022/06/20 02:30:46;;;;;;;;;29.75;25.00;;;;;19.63;61.23;100350.38;5110033;27;45305;-53
2022/06/20 02:33:16;;;;;;;;;27.50;23.50;;;;;19.64;60.99;100368.84;5109738;27;73448;-53
2022/06/20 02:35:42;;;;;;;;;29.25;22.00;;;;;19.68;61.39;100396.03;5109753;27;46016;-52
2022/06/20 02:38:07;;;;;;;;;28.50;22.50;;;;;19.70;61.32;100410.03;5100422;27;45608;-55
2022/06/20 02:40:33;;;;;;;;;25.50;23.75;;;;;19.71;61.70;100420.56;5105002;27;65447;-55
2022/06/20 02:43:04;;;;;;;;;25.75;23.00;;;;;19.72;61.32;100424.94;5110686;27;46215;-51
2022/06/20 02:45:31;;;;;;;;;26.00;20.00;;;;;19.75;61.18;100437.16;5103819;27;45546;-54
2022/06/20 02:48:00;;;;;;;;;23.50;21.50;;;;;19.78;61.40;100460.84;5106978;27;45227;-52
2022/06/20 02:50:29;;;;;;;;;22.00;21.50;;;;;19.82;61.33;100466.78;5110704;27;46051;-55
2022/06/20 02:53:02;;;;;;;;;26.75;23.25;;;;;19.84;62.59;100465.72;5109421;27;47838;-50
2022/06/20 02:55:29;;;;;;;;;26.25;21.25;;;;;19.82;61.91;100467.63;5105083;27;45408;-53
2022/06/20 02:57:58;;;;;;;;;25.50;23.25;;;;;19.78;61.41;100470.59;5100604;27;45799;-54
2022/06/20 03:00:39;;;;;;;;;30.75;25.00;;;;;19.78;62.05;100479.44;5112071;27;45407;-54
2022/06/20 03:03:10;;;;;;;;;23.50;21.00;;;;;19.73;61.49;100466.47;5113605;27;46462;-55
2022/06/20 03:05:38;;;;;;;;;28.50;24.25;;;;;19.71;61.89;100460.38;5101995;27;45637;-55
2022/06/20 03:08:04;;;;;;;;;21.50;18.25;;;;;19.71;61.60;100475.47;5107538;27;45321;-55
2022/06/20 03:10:39;;;;;;;;;27.25;19.75;;;;;19.68;62.28;100487.13;5112855;27;45305;-54
2022/06/20 03:13:05;;;;;;;;;24.00;22.50;;;;;19.67;62.21;100495.22;5109730;27;47963;-53
2022/06/20 03:15:31;;;;;;;;;30.00;22.25;;;;;19.67;61.35;100509.34;5105378;27;73467;-52
2022/06/20 03:17:57;;;;;;;;;24.00;22.00;;;;;19.68;62.33;100523.47;5106203;27;57059;-53
2022/06/20 03:20:27;;;;;;;;;15.75;15.25;;;;;19.69;61.54;100525.19;5111414;27;45463;-54
2022/06/20 03:22:59;;;;;;;;;22.25;16.75;;;;;19.69;61.87;100538.47;5110370;27;47208;-53
2022/06/20 03:25:25;;;;;;;;;28.50;23.25;;;;;19.64;61.49;100528.13;5105846;27;47967;-53
2022/06/20 03:27:52;;;;;;;;;23.25;18.50;;;;;19.61;61.45;100541.63;5110103;27;45429;-53
2022/06/20 03:30:23;;;;;;;;;21.75;19.00;;;;;19.60;61.47;100541.72;5108375;27;45576;-53
2022/06/20 03:32:49;;;;;;;;;25.25;20.25;;;;;19.59;61.63;100542.69;5103974;27;45892;-54
2022/06/20 03:35:14;;;;;;;;;22.25;19.00;;;;;19.59;61.57;100553.31;5103156;27;45494;-54
2022/06/20 03:37:40;;;;;;;;;21.25;16.25;;;;;19.59;61.19;100566.56;5110578;27;45301;-54
2022/06/20 03:40:05;;;;;;;;;24.25;22.50;;;;;19.60;61.00;100569.13;5100967;27;67171;-54
2022/06/20 03:42:31;;;;;;;;;21.25;18.75;;;;;19.62;61.31;100574.31;5106530;27;46130;-54
2022/06/20 03:44:57;;;;;;;;;22.75;19.75;;;;;19.61;60.80;100581.44;5109641;27;70974;-55
2022/06/20 03:47:26;;;;;;;;;23.25;21.25;;;;;19.60;61.13;100582.41;5104955;27;45401;-55
2022/06/20 03:50:03;;;;;;;;;25.00;20.00;;;;;19.57;61.50;100590.56;5111944;27;45342;-55
2022/06/20 03:52:34;;;;;;;;;21.25;19.25;;;;;19.51;61.01;100593.63;5122310;27;46065;-55
2022/06/20 03:55:04;;;;;;;;;26.50;22.75;;;;;19.49;61.02;100591.06;5094615;27;46021;-54
2022/06/20 03:58:04;;;;;;;;;18.75;16.00;;;;;19.44;61.13;100590.53;5105642;27;46144;-55
2022/06/20 04:00:49;;;;;;;;;24.25;23.00;;;;;19.38;61.17;100587.44;5106452;27;45398;-55
2022/06/20 04:03:39;;;;;;;;;23.50;21.75;;;;;19.31;61.37;100582.53;5102391;27;48982;-55
2022/06/20 04:06:10;;;;;;;;;29.50;24.50;;;;;19.22;61.23;100585.78;5109035;27;45481;-53
2022/06/20 04:11:34;;;;;;;;;26.25;23.25;;;;;19.12;60.93;100611.22;5105247;27;45479;-53
2022/06/20 04:14:05;;;;;;;;;28.25;23.50;;;;;19.11;61.39;100612.19;5109014;27;46994;-55
2022/06/20 04:16:44;;;;;;;;;26.25;23.00;;;;;19.08;61.23;100615.84;5104816;27;45984;-54
2022/06/20 04:19:21;;;;;;;;;22.75;22.25;;;;;19.07;60.83;100622.13;5110601;27;45422;-51
2022/06/20 04:21:46;;;;;;;;;28.25;23.00;;;;;19.02;60.96;100624.22;5105239;27;45575;-51
2022/06/20 04:24:27;;;;;;;;;28.00;25.67;;;;;18.99;60.91;100624.41;5103707;27;47018;-53
2022/06/20 04:27:03;;;;;;;;;32.25;25.50;;;;;18.96;60.93;100629.91;5112444;27;46095;-55
2022/06/20 04:29:35;;;;;;;;;29.25;25.50;;;;;18.92;60.82;100628.41;5125491;27;45346;-55
2022/06/20 04:32:34;;;;;;;;;27.50;25.50;;;;;18.89;60.79;100634.78;5110114;27;45759;-53
2022/06/20 04:35:06;;;;;;;;;27.75;21.75;;;;;18.86;60.98;100632.31;5105639;27;46055;-55
2022/06/20 04:37:51;;;;;;;;;27.00;21.75;;;;;18.81;61.01;100634.38;5108046;27;45784;-53
2022/06/20 04:40:20;;;;;;;;;32.00;25.00;;;;;18.83;60.85;100632.50;5102315;27;45560;-54
2022/06/20 04:42:54;;;;;;;;;27.75;25.00;;;;;18.86;61.11;100628.81;5108195;27;45387;-54
2022/06/20 04:45:32;;;;;;;;;28.50;25.00;;;;;18.87;61.07;100633.16;5103146;27;45389;-55
2022/06/20 04:48:18;;;;;;;;;24.25;21.25;;;;;18.84;60.89;100644.81;5110639;27;46253;-54
2022/06/20 04:51:07;;;;;;;;;28.25;23.00;;;;;18.82;61.32;100653.78;5102297;27;45300;-55
2022/06/20 04:53:35;;;;;;;;;35.50;30.25;;;;;18.84;61.21;100659.84;5105228;27;45614;-55
2022/06/20 04:56:06;;;;;;;;;27.25;23.25;;;;;18.88;60.87;100667.53;5119296;27;46177;-53
2022/06/20 04:58:50;;;;;;;;;25.75;21.50;;;;;18.90;60.60;100668.28;5107565;27;45889;-54
2022/06/20 05:01:16;;;;;;;;;22.00;18.50;;;;;18.93;60.72;100678.69;5109406;27;45333;-53
2022/06/20 05:03:44;;;;;;;;;28.75;22.75;;;;;18.97;60.58;100684.66;5111074;27;72031;-55
2022/06/20 05:06:19;;;;;;;;;22.00;20.00;;;;;18.96;60.60;100683.81;5101241;27;45540;-53
2022/06/20 05:08:57;;;;;;;;;24.00;20.50;;;;;18.93;60.63;100676.06;5090267;27;45984;-54
2022/06/20 05:11:32;;;;;;;;;31.75;24.00;;;;;18.95;60.64;100694.53;5108445;27;45622;-53
2022/06/20 05:14:01;;;;;;;;;21.50;20.25;;;;;18.97;60.58;100700.56;5110420;27;46856;-52
2022/06/20 05:16:30;;;;;;;;;22.00;19.50;;;;;18.97;60.16;100698.75;5103311;27;47207;-54
2022/06/20 05:19:03;;;;;;;;;25.25;18.75;;;;;18.99;60.17;100681.91;5093695;27;45754;-55
2022/06/20 05:21:36;;;;;;;;;23.00;21.25;;;;;18.96;60.39;100686.47;5102263;27;45429;-53
2022/06/20 05:24:06;;;;;;;;;25.50;22.00;;;;;18.96;60.27;100688.25;5109221;27;45497;-57
2022/06/20 05:26:34;;;;;;;;;22.50;20.00;;;;;18.96;60.18;100688.25;5121632;27;45270;-53
2022/06/20 05:29:03;;;;;;;;;25.75;19.50;;;;;18.98;60.28;100683.69;5110202;27;45327;-52
2022/06/20 05:31:33;;;;;;;;;24.50;20.25;;;;;19.02;59.99;100679.09;5105479;27;45401;-54
2022/06/20 05:34:10;;;;;;;;;17.50;17.50;;;;;19.03;60.05;100684.25;5116750;27;45220;-54
2022/06/20 05:36:55;;;;;;;;;22.00;14.75;;;;;19.03;59.67;100688.72;5107655;27;45506;-54
2022/06/20 05:39:38;;;;;;;;;22.75;17.50;;;;;19.01;59.53;100693.28;5113530;27;45902;-55
2022/06/20 05:42:05;;;;;;;;;19.50;17.50;;;;;19.00;59.71;100697.75;5106349;27;45496;-54
2022/06/20 05:44:30;;;;;;;;;16.75;15.75;;;;;19.02;59.45;100705.59;5103348;27;45516;-55
2022/06/20 05:47:30;;;;;;;;;16.25;15.75;;;;;19.01;59.64;100720.63;5107436;27;45525;-54
2022/06/20 05:50:13;;;;;;;;;21.50;14.00;;;;;19.04;59.38;100727.56;5100676;27;45946;-54
2022/06/20 05:52:40;;;;;;;;;18.75;15.00;;;;;19.05;59.09;100734.56;5128658;27;45413;-54
2022/06/20 05:55:11;;;;;;;;;19.50;17.25;;;;;19.06;59.15;100730.97;5105047;27;45297;-53
2022/06/20 05:57:40;;;;;;;;;14.50;12.25;;;;;19.08;59.37;100739.69;5102015;27;47759;-51
2022/06/20 06:00:16;;;;;;;;;20.25;15.00;;;;;19.12;59.17;100746.50;5108722;27;45672;-55
2022/06/20 06:02:46;;;;;;;;;20.50;18.25;;;;;19.14;59.17;100747.25;5109513;27;45451;-53
2022/06/20 06:05:37;;;;;;;;;18.50;12.00;;;;;19.14;58.90;100752.53;5112088;27;45535;-52
2022/06/20 06:08:14;;;;;;;;;16.25;14.25;;;;;19.12;58.91;100751.78;5109164;27;46202;-54
2022/06/20 06:10:42;;;;;;;;;15.00;13.75;;;;;19.11;58.80;100753.59;5096588;27;45404;-50
2022/06/20 06:13:21;;;;;;;;;14.25;11.75;;;;;19.07;58.62;100746.78;5108374;27;45368;-55
2022/06/20 06:19:14;;;;;;;;;12.75;10.75;;;;;19.09;58.64;100766.13;5101521;27;45518;-52
2022/06/20 06:21:41;;;;;;;;;12.75;10.50;;;;;19.07;58.22;100769.78;5089501;27;45733;-55
2022/06/20 06:24:10;;;;;;;;;11.25;11.25;;;;;19.03;58.36;100770.94;5112437;27;45447;-53
2022/06/20 06:26:36;;;;;;;;;18.25;11.00;;;;;19.02;58.68;100780.72;5107053;27;45313;-52
2022/06/20 06:29:03;;;;;;;;;11.50;9.50;;;;;19.05;58.66;100779.66;5099356;27;46791;-52
2022/06/20 06:31:32;;;;;;;;;13.00;12.00;;;;;19.06;58.42;100787.53;5090234;27;45785;-54
2022/06/20 06:34:05;;;;;;;;;14.75;12.50;;;;;19.05;58.39;100792.91;5107248;27;45437;-55
2022/06/20 06:36:31;;;;;;;;;13.75;11.00;;;;;19.01;58.51;100789.59;5088301;27;45458;-55
2022/06/20 06:39:03;;;;;;;;;15.00;13.00;;;;;18.97;58.33;100796.06;5114096;27;46959;-53
2022/06/20 06:41:32;;;;;;;;;15.00;11.50;;;;;18.89;58.31;100796.53;5104342;27;45413;-53
2022/06/20 06:43:58;;;;;;;;;12.25;9.50;;;;;18.85;58.26;100787.03;5104598;27;45471;-53
2022/06/20 06:46:42;;;;;;;;;12.25;10.00;;;;;18.82;58.56;100784.56;5104110;27;45495;-54
2022/06/20 06:49:23;;;;;;;;;14.00;11.00;;;;;18.85;58.43;100796.78;5101360;27;45532;-55
2022/06/20 06:52:19;;;;;;;;;11.50;11.00;;;;;18.84;58.40;100797.72;5106995;27;45388;-55
2022/06/20 06:54:53;;;;;;;;;19.75;11.75;;;;;18.81;58.17;100811.16;5111026;27;45226;-53
2022/06/20 06:57:38;;;;;;;;;13.50;10.50;;;;;18.78;58.27;100806.88;5105112;27;45630;-53
2022/06/20 07:00:03;;;;;;;;;12.75;11.00;;;;;18.77;58.18;100824.59;5102652;27;45539;-52
2022/06/20 07:02:32;;;;;;;;;13.00;11.33;;;;;18.75;58.31;100818.53;5108392;27;45396;-51
2022/06/20 07:05:04;;;;;;;;;13.25;12.00;;;;;18.74;58.23;100816.81;5111205;27;45464;-55
2022/06/20 07:07:34;;;;;;;;;12.00;10.50;;;;;18.77;58.25;100827.25;5108211;27;45237;-55
2022/06/20 07:10:00;;;;;;;;;13.00;10.25;;;;;18.84;58.37;100830.44;5107169;27;46020;-55
2022/06/20 07:12:31;;;;;;;;;19.25;12.50;;;;;18.87;58.09;100826.72;5104799;27;45502;-55
2022/06/20 07:15:26;;;;;;;;;14.00;12.50;;;;;18.86;58.07;100846.25;5086928;27;45550;-54
2022/06/20 07:17:55;;;;;;;;;19.50;13.25;;;;;18.84;58.01;100848.09;5107458;27;45453;-53
2022/06/20 07:20:24;;;;;;;;;12.75;12.50;;;;;18.84;58.03;100841.03;5107819;27;46356;-55
2022/06/20 07:22:50;;;;;;;;;18.75;13.25;;;;;18.86;58.19;100848.91;5109233;27;45262;-55
2022/06/20 07:25:15;;;;;;;;;13.25;12.00;;;;;18.86;58.02;100851.56;5113167;27;45444;-53
2022/06/20 07:27:47;;;;;;;;;13.67;12.33;;;;;18.82;58.06;100853.50;5108623;27;45496;-54
2022/06/20 07:30:19;;;;;;;;;16.50;12.75;;;;;18.80;58.52;100852.72;5103961;27;46443;-53
2022/06/20 07:32:50;;;;;;;;;17.25;13.00;;;;;18.83;58.07;100852.56;5108512;27;45895;-53
2022/06/20 07:35:21;;;;;;;;;17.00;13.25;;;;;18.84;58.06;100858.72;5105650;27;45495;-54
2022/06/20 07:38:09;;;;;;;;;18.25;15.75;;;;;18.83;57.99;100868.47;5111933;27;45425;-53
2022/06/20 07:40:38;;;;;;;;;14.00;12.75;;;;;18.82;57.75;100866.75;5115910;27;46646;-51
2022/06/20 07:43:16;;;;;;;;;15.75;13.00;;;;;18.77;57.93;100869.66;5105337;27;45663;-52
2022/06/20 07:45:46;;;;;;;;;12.25;12.25;;;;;18.76;57.78;100867.94;5106138;27;45520;-55
2022/06/20 07:48:15;;;;;;;;;16.25;12.50;;;;;18.73;57.88;100870.81;5104856;27;45478;-53
2022/06/20 07:50:49;;;;;;;;;10.25;7.75;;;;;18.69;57.86;100871.06;5112141;27;48021;-51
2022/06/20 07:53:23;;;;;;;;;15.25;14.50;;;;;18.69;57.69;100877.22;5110180;27;45900;-53
2022/06/20 07:55:53;;;;;;;;;13.75;11.00;;;;;18.71;57.89;100879.78;5104419;27;45489;-52
2022/06/20 07:58:26;;;;;;;;;14.50;13.00;;;;;18.68;57.84;100880.81;5104031;27;45500;-50
2022/06/20 08:00:53;;;;;;;;;16.50;13.00;;;;;18.63;58.07;100890.84;5106644;27;45331;-55
2022/06/20 08:03:21;;;;;;;;;16.00;13.00;;;;;18.59;58.46;100892.81;5105554;27;45384;-54
2022/06/20 08:06:16;;;;;;;;;13.75;12.75;;;;;18.58;58.43;100896.41;5086212;27;45510;-54
2022/06/20 08:08:50;;;;;;;;;14.00;11.50;;;;;18.59;58.64;100894.59;5097819;27;45667;-55
2022/06/20 08:11:42;;;;;;;;;13.00;12.00;;;;;18.54;58.40;100881.63;5077403;27;47208;-54
2022/06/20 08:14:17;;;;;;;;;12.50;11.50;;;;;18.52;58.66;100893.25;5100708;27;45254;-54
2022/06/20 08:16:43;;;;;;;;;22.75;14.25;;;;;18.50;59.00;100888.06;5106441;27;45471;-55
2022/06/20 08:19:08;;;;;;;;;17.50;14.00;;;;;18.49;58.46;100888.97;5091546;27;61421;-52
2022/06/20 08:21:37;;;;;;;;;18.75;17.00;;;;;18.50;58.61;100885.41;5105305;27;73113;-55
2022/06/20 08:24:13;;;;;;;;;16.50;13.50;;;;;18.58;58.47;100892.91;5100283;27;45686;-53
2022/06/20 08:26:59;;;;;;;;;19.25;17.00;;;;;18.62;58.36;100881.16;5106883;27;45499;-52
2022/06/20 08:29:33;;;;;;;;;17.00;16.50;;;;;18.68;58.39;100888.78;5108988;27;45392;-53
2022/06/20 08:32:06;;;;;;;;;19.25;14.50;;;;;18.73;58.09;100880.53;5104673;27;45587;-56
2022/06/20 08:34:38;;;;;;;;;18.25;15.00;;;;;18.78;58.18;100883.78;5112455;27;45570;-54
2022/06/20 08:37:18;;;;;;;;;19.00;16.50;;;;;18.77;57.78;100882.09;5094718;27;45568;-53
2022/06/20 08:39:50;;;;;;;;;17.75;14.75;;;;;18.77;58.06;100880.28;5086090;27;45414;-55
2022/06/20 08:42:36;;;;;;;;;16.75;15.50;;;;;18.74;57.95;100869.84;5099458;27;45848;-53
2022/06/20 08:45:21;;;;;;;;;19.50;15.50;;;;;18.74;57.80;100871.66;5109023;27;45380;-51
2022/06/20 08:47:56;;;;;;;;;16.50;15.25;;;;;18.76;58.02;100875.06;5105488;27;45538;-48
2022/06/20 08:50:36;;;;;;;;;19.75;14.50;;;;;18.79;58.15;100881.03;5104303;27;45547;-47
2022/06/20 08:53:22;;;;;;;;;21.75;17.50;;;;;18.80;57.79;100897.78;5101818;27;45401;-50
2022/06/20 08:56:20;;;;;;;;;19.25;15.50;;;;;18.83;57.87;100899.44;5102219;27;45956;-48
2022/06/20 08:58:45;;;;;;;;;18.25;15.00;;;;;18.86;57.78;100899.28;5101442;27;45515;-48
2022/06/20 09:01:37;;;;;;;;;22.25;18.25;;;;;18.89;57.84;100904.38;5108406;27;45395;-52
2022/06/20 09:04:13;;;;;;;;;17.50;14.00;;;;;18.95;57.46;100912.00;5116661;27;45297;-51
2022/06/20 09:06:41;;;;;;;;;16.75;14.25;;;;;18.98;57.50;100919.75;5108800;27;45297;-48
2022/06/20 09:09:31;;;;;;;;;16.50;15.00;;;;;19.00;57.23;100914.34;5101832;27;45252;-48
2022/06/20 09:12:07;;;;;;;;;20.75;17.75;;;;;19.03;56.96;100930.09;5105062;27;45708;-48
2022/06/20 09:14:53;;;;;;;;;21.50;16.00;;;;;19.04;57.01;100934.47;5107094;27;46562;-48
2022/06/20 09:17:42;;;;;;;;;17.25;14.50;;;;;19.06;57.17;100933.41;5113287;27;45293;-48
2022/06/20 09:20:45;;;;;;;;;18.75;16.50;;;;;19.10;56.89;100934.94;5105752;27;45316;-50
2022/06/20 09:23:22;;;;;;;;;21.75;14.75;;;;;19.13;56.98;100934.75;5072449;27;45575;-50
2022/06/20 09:26:04;;;;;;;;;18.25;15.00;;;;;19.20;57.01;100939.72;5102570;27;46292;-50
2022/06/20 09:28:33;;;;;;;;;23.25;15.75;;;;;19.24;56.89;100930.59;5099131;27;45463;-48
2022/06/20 09:31:04;;;;;;;;;20.50;15.00;;;;;19.25;56.81;100924.38;5110106;27;45501;-52
2022/06/20 09:34:00;;;;;;;;;20.75;16.25;;;;;19.25;56.88;100927.88;5107932;27;45774;-48
2022/06/20 09:37:07;;;;;;;;;22.75;15.50;;;;;19.25;57.11;100935.81;5104166;27;45558;-51
2022/06/20 09:40:03;;;;;;;;;22.25;15.25;;;;;19.30;57.25;100943.50;5095276;27;45908;-53
2022/06/20 09:43:00;;;;;;;;;18.25;13.50;;;;;19.36;57.10;100951.09;5077618;27;45525;-54
2022/06/20 09:45:39;;;;;;;;;14.75;13.25;;;;;19.39;56.35;100952.69;5106272;27;45564;-52
2022/06/20 09:48:24;;;;;;;;;17.00;13.00;;;;;19.37;56.62;100952.81;5101748;27;46874;-53
2022/06/20 09:50:59;;;;;;;;;19.50;14.25;;;;;19.38;56.48;100966.94;5102122;27;45311;-51
2022/06/20 09:54:02;;;;;;;;;18.00;16.00;;;;;19.40;56.41;100957.06;5106003;27;45519;-53
2022/06/20 09:56:33;;;;;;;;;20.75;15.75;;;;;19.40;56.39;100955.25;5104043;27;45463;-54
2022/06/20 09:59:27;;;;;;;;;18.00;17.25;;;;;19.43;56.46;100957.75;5091340;27;47411;-53
2022/06/20 10:02:04;;;;;;;;;20.00;16.00;;;;;19.48;56.20;100968.09;5098937;27;45859;-53
2022/06/20 10:04:52;;;;;;;;;21.25;15.00;;;;;19.49;56.25;100962.66;5099470;27;45271;-54
2022/06/20 10:07:29;;;;;;;;;14.00;12.25;;;;;19.51;56.15;100962.56;5111802;27;45603;-46
2022/06/20 10:10:08;;;;;;;;;19.25;16.75;;;;;19.53;56.37;100966.84;5100764;27;45337;-46
2022/06/20 10:13:09;;;;;;;;;18.50;15.00;;;;;19.58;56.16;100971.88;5085557;27;45858;-45
2022/06/20 10:15:47;;;;;;;;;19.75;15.00;;;;;19.65;56.20;100969.69;5096481;27;45679;-47
2022/06/20 10:18:30;;;;;;;;;21.00;18.00;;;;;19.68;55.73;100970.34;5108327;27;45345;-45
2022/06/20 10:21:03;;;;;;;;;16.25;15.00;;;;;19.70;55.88;100967.63;5112399;27;45538;-46
2022/06/20 10:24:04;;;;;;;;;23.50;20.25;;;;;19.73;55.81;100970.09;5102495;27;45444;-46
2022/06/20 10:26:58;;;;;;;;;16.25;15.75;;;;;19.83;56.02;100957.09;5102592;27;45307;-47
2022/06/20 10:29:40;;;;;;;;;19.00;16.75;;;;;19.91;55.38;100970.78;5106196;27;45514;-48
2022/06/20 10:32:21;;;;;;;;;17.00;16.50;;;;;19.90;54.23;100964.63;5115951;27;47009;-49
2022/06/20 10:35:08;;;;;;;;;20.75;17.75;;;;;19.91;55.08;100968.97;5110043;27;45304;-46
2022/06/20 10:38:03;;;;;;;;;17.00;15.75;;;;;19.96;54.68;100962.53;5102148;27;45236;-46
2022/06/20 10:40:34;;;;;;;;;18.50;18.25;;;;;20.01;55.19;100963.94;5108306;27;45448;-44
2022/06/20 10:43:30;;;;;;;;;18.00;16.50;;;;;20.14;55.27;100971.97;5117543;27;47107;-48
2022/06/20 10:45:59;;;;;;;;;17.75;17.75;;;;;20.27;55.15;100975.56;5110294;27;46773;-46
2022/06/20 10:48:50;;;;;;;;;20.25;17.50;;;;;20.41;54.77;100979.13;5105634;27;45271;-45
2022/06/20 10:51:43;;;;;;;;;19.25;16.00;;;;;20.53;54.64;100983.66;5103868;27;45384;-44
2022/06/20 10:54:30;;;;;;;;;18.00;17.00;;;;;20.62;54.89;100979.59;5117834;27;46705;-47
2022/06/20 10:57:04;;;;;;;;;19.00;16.25;;;;;20.75;54.67;100979.63;5105573;27;47624;-47
2022/06/20 10:59:51;;;;;;;;;19.00;16.50;;;;;20.86;53.82;100980.63;5104645;27;45487;-51
2022/06/20 11:02:44;;;;;;;;;18.50;16.75;;;;;20.94;53.85;100987.25;5106558;27;45381;-52
2022/06/20 11:05:57;;;;;;;;;20.50;19.00;;;;;20.99;53.92;100995.78;5105650;27;45433;-50
2022/06/20 11:08:40;;;;;;;;;16.75;15.50;;;;;21.05;53.58;100998.91;5101083;27;45416;-51
2022/06/20 11:11:24;;;;;;;;;20.75;16.00;;;;;21.10;53.48;100995.91;5104556;27;45490;-50
2022/06/20 11:14:10;;;;;;;;;18.00;16.75;;;;;21.14;53.59;100997.44;5109358;27;45404;-51
2022/06/20 11:16:57;;;;;;;;;23.25;18.50;;;;;21.19;53.27;101000.59;5108903;27;45495;-52
2022/06/20 11:20:01;;;;;;;;;18.50;17.75;;;;;21.29;53.00;100992.00;5104956;27;45370;-51
2022/06/20 11:22:36;;;;;;;;;24.25;20.00;;;;;21.39;52.66;100987.78;5105369;27;45402;-50
2022/06/20 11:25:07;;;;;;;;;18.25;16.00;;;;;21.48;51.99;101003.16;5111732;27;45659;-47
2022/06/20 11:28:06;;;;;;;;;16.00;14.25;;;;;21.54;52.71;100992.06;5109030;27;46486;-50
2022/06/20 11:30:53;;;;;;;;;14.75;14.25;;;;;21.65;52.11;100999.28;5100310;27;45463;-48
2022/06/20 11:34:02;;;;;;;;;20.00;17.25;;;;;21.81;51.68;100991.09;5110046;27;45372;-47
2022/06/20 11:36:34;;;;;;;;;18.50;16.75;;;;;21.92;51.72;100993.00;5104629;27;45432;-49
2022/06/20 11:39:12;;;;;;;;;19.00;17.75;;;;;21.98;51.45;101005.91;5108899;27;45505;-50
2022/06/20 11:41:47;;;;;;;;;20.25;14.25;;;;;22.07;52.05;100994.56;5109900;27;45273;-50
2022/06/20 11:44:18;;;;;;;;;18.25;16.00;;;;;22.14;51.41;100990.50;5113716;27;45311;-47
2022/06/20 11:47:09;;;;;;;;;17.00;16.50;;;;;22.26;51.13;100994.13;5102130;27;45482;-50
2022/06/20 11:49:49;;;;;;;;;14.25;14.00;;;;;22.33;51.40;100992.75;5096885;27;48262;-47
2022/06/20 11:52:45;;;;;;;;;15.00;14.25;;;;;22.41;50.40;100996.66;5106598;27;45240;-52
2022/06/20 11:55:15;;;;;;;;;16.00;14.50;;;;;22.44;50.34;101001.78;5102980;27;45447;-49